sensor_id;sensor_type;location;lat;lon;timestamp;P1;durP1;ratioP1;P2;durP2;ratioP2
2177;SDS011;1095;50.992;6.798;2022-09-01T00:01:34;6.13;;;5.43;;
2177;SDS011;1095;50.992;6.798;2022-09-01T00:04:03;7.18;;;5.72;;
2177;SDS011;1095;50.992;6.798;2022-09-01T00:06:34;8.90;;;5.55;;
2177;SDS011;1095;50.992;6.798;2022-09-01T00:09:06;6.90;;;5.85;;
2177;SDS011;1095;50.992;6.798;2022-09-01T00:11:34;6.93;;;5.32;;
2177;SDS011;1095;50.992;6.798;2022-09-01T00:14:02;8.05;;;5.53;;
2177;SDS011;1095;50.992;6.798;2022-09-01T00:16:30;7.65;;;5.65;;
2177;SDS011;1095;50.992;6.798;2022-09-01T00:18:57;7.97;;;5.68;;
2177;SDS011;1095;50.992;6.798;2022-09-01T00:21:25;9.20;;;6.20;;
2177;SDS011;1095;50.992;6.798;2022-09-01T00:23:56;10.13;;;5.85;;
2177;SDS011;1095;50.992;6.798;2022-09-01T00:26:24;7.70;;;6.22;;
2177;SDS011;1095;50.992;6.798;2022-09-01T00:28:51;8.00;;;6.00;;
2177;SDS011;1095;50.992;6.798;2022-09-01T00:31:17;10.00;;;5.78;;
2177;SDS011;1095;50.992;6.798;2022-09-01T00:33:45;7.45;;;5.78;;
2177;SDS011;1095;50.992;6.798;2022-09-01T00:36:13;8.30;;;5.85;;
2177;SDS011;1095;50.992;6.798;2022-09-01T00:38:40;9.10;;;5.75;;
2177;SDS011;1095;50.992;6.798;2022-09-01T00:41:08;7.15;;;5.47;;
2177;SDS011;1095;50.992;6.798;2022-09-01T00:43:37;7.47;;;6.25;;
2177;SDS011;1095;50.992;6.798;2022-09-01T00:46:05;7.03;;;5.75;;
2177;SDS011;1095;50.992;6.798;2022-09-01T00:48:34;8.40;;;5.72;;
2177;SDS011;1095;50.992;6.798;2022-09-01T00:51:02;8.60;;;5.90;;
2177;SDS011;1095;50.992;6.798;2022-09-01T00:53:29;8.75;;;5.78;;
2177;SDS011;1095;50.992;6.798;2022-09-01T00:55:57;7.72;;;5.88;;
2177;SDS011;1095;50.992;6.798;2022-09-01T00:58:25;6.85;;;5.65;;
2177;SDS011;1095;50.992;6.798;2022-09-01T01:00:52;8.10;;;5.95;;
2177;SDS011;1095;50.992;6.798;2022-09-01T01:03:19;6.63;;;5.75;;
2177;SDS011;1095;50.992;6.798;2022-09-01T01:05:48;7.35;;;6.30;;
2177;SDS011;1095;50.992;6.798;2022-09-01T01:08:19;9.60;;;6.30;;
2177;SDS011;1095;50.992;6.798;2022-09-01T01:10:58;9.55;;;6.25;;
2177;SDS011;1095;50.992;6.798;2022-09-01T01:13:28;8.05;;;6.38;;
2177;SDS011;1095;50.992;6.798;2022-09-01T01:16:00;8.18;;;6.22;;
2177;SDS011;1095;50.992;6.798;2022-09-01T01:18:28;7.22;;;5.93;;
2177;SDS011;1095;50.992;6.798;2022-09-01T01:20:58;7.40;;;6.28;;
2177;SDS011;1095;50.992;6.798;2022-09-01T01:23:47;7.47;;;6.65;;
2177;SDS011;1095;50.992;6.798;2022-09-01T01:26:22;6.85;;;6.15;;
2177;SDS011;1095;50.992;6.798;2022-09-01T01:28:48;8.20;;;5.93;;
2177;SDS011;1095;50.992;6.798;2022-09-01T01:31:19;6.70;;;5.85;;
2177;SDS011;1095;50.992;6.798;2022-09-01T01:33:47;10.57;;;6.10;;
2177;SDS011;1095;50.992;6.798;2022-09-01T01:36:17;9.30;;;6.30;;
2177;SDS011;1095;50.992;6.798;2022-09-01T01:38:51;6.70;;;5.97;;
2177;SDS011;1095;50.992;6.798;2022-09-01T01:41:19;7.47;;;6.65;;
2177;SDS011;1095;50.992;6.798;2022-09-01T01:43:49;10.25;;;7.10;;
2177;SDS011;1095;50.992;6.798;2022-09-01T01:46:16;8.13;;;6.45;;
2177;SDS011;1095;50.992;6.798;2022-09-01T01:48:44;8.50;;;6.80;;
2177;SDS011;1095;50.992;6.798;2022-09-01T01:51:11;8.07;;;6.75;;
2177;SDS011;1095;50.992;6.798;2022-09-01T01:53:38;8.27;;;6.50;;
2177;SDS011;1095;50.992;6.798;2022-09-01T01:56:05;7.75;;;6.65;;
2177;SDS011;1095;50.992;6.798;2022-09-01T01:58:34;7.78;;;6.07;;
2177;SDS011;1095;50.992;6.798;2022-09-01T02:01:02;8.23;;;6.50;;
2177;SDS011;1095;50.992;6.798;2022-09-01T02:03:31;7.60;;;6.00;;
2177;SDS011;1095;50.992;6.798;2022-09-01T02:06:03;6.80;;;5.95;;
2177;SDS011;1095;50.992;6.798;2022-09-01T02:08:32;7.72;;;6.22;;
2177;SDS011;1095;50.992;6.798;2022-09-01T02:11:00;6.82;;;5.55;;
2177;SDS011;1095;50.992;6.798;2022-09-01T02:13:27;6.85;;;5.93;;
2177;SDS011;1095;50.992;6.798;2022-09-01T02:15:56;7.13;;;5.65;;
2177;SDS011;1095;50.992;6.798;2022-09-01T02:18:30;7.78;;;6.22;;
2177;SDS011;1095;50.992;6.798;2022-09-01T02:21:00;11.75;;;5.97;;
2177;SDS011;1095;50.992;6.798;2022-09-01T02:23:27;8.50;;;5.90;;
2177;SDS011;1095;50.992;6.798;2022-09-01T02:25:56;6.80;;;5.80;;
2177;SDS011;1095;50.992;6.798;2022-09-01T02:28:26;7.80;;;5.20;;
2177;SDS011;1095;50.992;6.798;2022-09-01T02:30:55;8.93;;;6.03;;
2177;SDS011;1095;50.992;6.798;2022-09-01T02:33:24;7.28;;;5.45;;
2177;SDS011;1095;50.992;6.798;2022-09-01T02:35:56;7.93;;;5.60;;
2177;SDS011;1095;50.992;6.798;2022-09-01T02:38:25;8.25;;;5.70;;
2177;SDS011;1095;50.992;6.798;2022-09-01T02:40:53;7.78;;;5.70;;
2177;SDS011;1095;50.992;6.798;2022-09-01T02:43:22;8.75;;;5.60;;
2177;SDS011;1095;50.992;6.798;2022-09-01T02:45:52;9.18;;;6.00;;
2177;SDS011;1095;50.992;6.798;2022-09-01T02:48:23;7.70;;;6.03;;
2177;SDS011;1095;50.992;6.798;2022-09-01T02:50:58;6.88;;;5.68;;
2177;SDS011;1095;50.992;6.798;2022-09-01T02:53:26;7.13;;;6.25;;
2177;SDS011;1095;50.992;6.798;2022-09-01T02:55:53;7.22;;;6.20;;
2177;SDS011;1095;50.992;6.798;2022-09-01T02:58:23;8.93;;;6.45;;
2177;SDS011;1095;50.992;6.798;2022-09-01T03:00:50;7.15;;;6.40;;
2177;SDS011;1095;50.992;6.798;2022-09-01T03:03:19;10.52;;;6.50;;
2177;SDS011;1095;50.992;6.798;2022-09-01T03:05:46;7.65;;;6.50;;
2177;SDS011;1095;50.992;6.798;2022-09-01T03:08:17;8.18;;;6.78;;
2177;SDS011;1095;50.992;6.798;2022-09-01T03:10:44;9.10;;;6.93;;
2177;SDS011;1095;50.992;6.798;2022-09-01T03:13:12;8.75;;;6.78;;
2177;SDS011;1095;50.992;6.798;2022-09-01T03:15:40;7.85;;;7.05;;
2177;SDS011;1095;50.992;6.798;2022-09-01T03:18:08;9.38;;;7.03;;
2177;SDS011;1095;50.992;6.798;2022-09-01T03:20:36;9.35;;;7.18;;
2177;SDS011;1095;50.992;6.798;2022-09-01T03:23:08;9.82;;;7.30;;
2177;SDS011;1095;50.992;6.798;2022-09-01T03:25:40;9.70;;;7.20;;
2177;SDS011;1095;50.992;6.798;2022-09-01T03:28:08;7.72;;;6.93;;
2177;SDS011;1095;50.992;6.798;2022-09-01T03:30:37;8.00;;;7.20;;
2177;SDS011;1095;50.992;6.798;2022-09-01T03:33:09;7.88;;;7.03;;
2177;SDS011;1095;50.992;6.798;2022-09-01T03:35:36;9.18;;;7.10;;
2177;SDS011;1095;50.992;6.798;2022-09-01T03:38:03;9.32;;;7.40;;
2177;SDS011;1095;50.992;6.798;2022-09-01T03:40:31;9.55;;;7.15;;
2177;SDS011;1095;50.992;6.798;2022-09-01T03:43:02;9.52;;;7.32;;
2177;SDS011;1095;50.992;6.798;2022-09-01T03:45:31;8.07;;;7.18;;
2177;SDS011;1095;50.992;6.798;2022-09-01T03:47:59;10.30;;;7.47;;
2177;SDS011;1095;50.992;6.798;2022-09-01T03:50:33;8.77;;;7.05;;
2177;SDS011;1095;50.992;6.798;2022-09-01T03:53:05;7.70;;;6.93;;
2177;SDS011;1095;50.992;6.798;2022-09-01T03:55:33;8.23;;;7.10;;
2177;SDS011;1095;50.992;6.798;2022-09-01T03:58:04;12.25;;;7.40;;
2177;SDS011;1095;50.992;6.798;2022-09-01T04:00:33;8.00;;;6.95;;
2177;SDS011;1095;50.992;6.798;2022-09-01T04:03:02;9.32;;;7.47;;
2177;SDS011;1095;50.992;6.798;2022-09-01T04:05:32;15.63;;;7.10;;
2177;SDS011;1095;50.992;6.798;2022-09-01T04:08:02;8.95;;;7.10;;
2177;SDS011;1095;50.992;6.798;2022-09-01T04:10:31;11.02;;;7.20;;
2177;SDS011;1095;50.992;6.798;2022-09-01T04:12:59;8.10;;;6.90;;
2177;SDS011;1095;50.992;6.798;2022-09-01T04:15:28;8.38;;;6.95;;
2177;SDS011;1095;50.992;6.798;2022-09-01T04:17:56;8.70;;;7.30;;
2177;SDS011;1095;50.992;6.798;2022-09-01T04:20:34;9.68;;;7.40;;
2177;SDS011;1095;50.992;6.798;2022-09-01T04:23:12;10.05;;;6.90;;
2177;SDS011;1095;50.992;6.798;2022-09-01T04:25:50;8.85;;;7.20;;
2177;SDS011;1095;50.992;6.798;2022-09-01T04:28:19;8.02;;;7.22;;
2177;SDS011;1095;50.992;6.798;2022-09-01T04:30:51;7.75;;;6.95;;
2177;SDS011;1095;50.992;6.798;2022-09-01T04:33:20;10.05;;;7.60;;
2177;SDS011;1095;50.992;6.798;2022-09-01T04:35:48;11.38;;;8.45;;
2177;SDS011;1095;50.992;6.798;2022-09-01T04:38:21;10.57;;;8.13;;
2177;SDS011;1095;50.992;6.798;2022-09-01T04:40:49;10.25;;;7.63;;
2177;SDS011;1095;50.992;6.798;2022-09-01T04:43:18;10.50;;;8.57;;
2177;SDS011;1095;50.992;6.798;2022-09-01T04:45:45;14.05;;;8.82;;
2177;SDS011;1095;50.992;6.798;2022-09-01T04:48:17;9.27;;;8.30;;
2177;SDS011;1095;50.992;6.798;2022-09-01T04:50:46;10.93;;;8.10;;
2177;SDS011;1095;50.992;6.798;2022-09-01T04:53:13;9.43;;;8.40;;
2177;SDS011;1095;50.992;6.798;2022-09-01T04:55:42;18.40;;;8.75;;
2177;SDS011;1095;50.992;6.798;2022-09-01T04:58:10;10.80;;;9.60;;
2177;SDS011;1095;50.992;6.798;2022-09-01T05:00:42;9.68;;;8.38;;
2177;SDS011;1095;50.992;6.798;2022-09-01T05:03:11;11.27;;;8.35;;
2177;SDS011;1095;50.992;6.798;2022-09-01T05:05:39;11.85;;;8.55;;
2177;SDS011;1095;50.992;6.798;2022-09-01T05:08:08;11.30;;;8.30;;
2177;SDS011;1095;50.992;6.798;2022-09-01T05:10:39;15.73;;;7.57;;
2177;SDS011;1095;50.992;6.798;2022-09-01T05:13:07;14.05;;;8.27;;
2177;SDS011;1095;50.992;6.798;2022-09-01T05:15:37;10.93;;;8.45;;
2177;SDS011;1095;50.992;6.798;2022-09-01T05:18:10;14.68;;;8.25;;
2177;SDS011;1095;50.992;6.798;2022-09-01T05:20:39;9.05;;;8.10;;
2177;SDS011;1095;50.992;6.798;2022-09-01T05:23:08;13.30;;;8.23;;
2177;SDS011;1095;50.992;6.798;2022-09-01T05:25:39;10.02;;;7.60;;
2177;SDS011;1095;50.992;6.798;2022-09-01T05:28:08;12.10;;;8.02;;
2177;SDS011;1095;50.992;6.798;2022-09-01T05:30:36;13.27;;;7.85;;
2177;SDS011;1095;50.992;6.798;2022-09-01T05:33:04;12.32;;;8.35;;
2177;SDS011;1095;50.992;6.798;2022-09-01T05:35:34;9.50;;;7.60;;
2177;SDS011;1095;50.992;6.798;2022-09-01T05:38:03;19.98;;;13.27;;
2177;SDS011;1095;50.992;6.798;2022-09-01T05:40:32;13.70;;;8.95;;
2177;SDS011;1095;50.992;6.798;2022-09-01T05:43:01;14.95;;;8.80;;
2177;SDS011;1095;50.992;6.798;2022-09-01T05:45:28;9.90;;;7.63;;
2177;SDS011;1095;50.992;6.798;2022-09-01T05:47:56;14.43;;;7.85;;
2177;SDS011;1095;50.992;6.798;2022-09-01T05:50:23;22.48;;;7.90;;
2177;SDS011;1095;50.992;6.798;2022-09-01T05:52:52;15.90;;;8.82;;
2177;SDS011;1095;50.992;6.798;2022-09-01T05:55:20;15.57;;;8.13;;
2177;SDS011;1095;50.992;6.798;2022-09-01T05:57:47;15.30;;;8.23;;
2177;SDS011;1095;50.992;6.798;2022-09-01T06:00:14;11.73;;;7.68;;
2177;SDS011;1095;50.992;6.798;2022-09-01T06:02:42;23.65;;;8.57;;
2177;SDS011;1095;50.992;6.798;2022-09-01T06:05:09;16.17;;;8.10;;
2177;SDS011;1095;50.992;6.798;2022-09-01T06:07:38;9.73;;;7.90;;
2177;SDS011;1095;50.992;6.798;2022-09-01T06:10:07;12.27;;;7.38;;
2177;SDS011;1095;50.992;6.798;2022-09-01T06:12:39;10.50;;;7.15;;
2177;SDS011;1095;50.992;6.798;2022-09-01T06:15:05;8.15;;;6.68;;
2177;SDS011;1095;50.992;6.798;2022-09-01T06:17:39;9.80;;;5.82;;
2177;SDS011;1095;50.992;6.798;2022-09-01T06:20:08;7.30;;;5.35;;
2177;SDS011;1095;50.992;6.798;2022-09-01T06:22:35;8.40;;;5.50;;
2177;SDS011;1095;50.992;6.798;2022-09-01T06:25:02;8.18;;;5.95;;
2177;SDS011;1095;50.992;6.798;2022-09-01T06:27:31;8.05;;;5.32;;
2177;SDS011;1095;50.992;6.798;2022-09-01T06:29:59;8.35;;;5.20;;
2177;SDS011;1095;50.992;6.798;2022-09-01T06:32:26;12.70;;;5.13;;
2177;SDS011;1095;50.992;6.798;2022-09-01T06:34:53;9.93;;;5.43;;
2177;SDS011;1095;50.992;6.798;2022-09-01T06:37:22;7.07;;;4.97;;
2177;SDS011;1095;50.992;6.798;2022-09-01T06:39:48;12.50;;;5.38;;
2177;SDS011;1095;50.992;6.798;2022-09-01T06:42:15;7.57;;;5.15;;
2177;SDS011;1095;50.992;6.798;2022-09-01T06:44:43;7.25;;;4.95;;
2177;SDS011;1095;50.992;6.798;2022-09-01T06:47:12;6.82;;;4.80;;
2177;SDS011;1095;50.992;6.798;2022-09-01T06:49:39;8.25;;;4.75;;
2177;SDS011;1095;50.992;6.798;2022-09-01T06:52:06;9.93;;;5.65;;
2177;SDS011;1095;50.992;6.798;2022-09-01T06:54:34;8.57;;;5.20;;
2177;SDS011;1095;50.992;6.798;2022-09-01T06:57:06;5.40;;;4.20;;
2177;SDS011;1095;50.992;6.798;2022-09-01T06:59:32;6.63;;;4.13;;
2177;SDS011;1095;50.992;6.798;2022-09-01T07:02:00;5.50;;;3.88;;
2177;SDS011;1095;50.992;6.798;2022-09-01T07:04:29;6.03;;;3.58;;
2177;SDS011;1095;50.992;6.798;2022-09-01T07:06:56;10.93;;;4.20;;
2177;SDS011;1095;50.992;6.798;2022-09-01T07:09:23;5.85;;;3.80;;
2177;SDS011;1095;50.992;6.798;2022-09-01T07:11:49;6.20;;;4.05;;
2177;SDS011;1095;50.992;6.798;2022-09-01T07:14:16;5.03;;;3.90;;
2177;SDS011;1095;50.992;6.798;2022-09-01T07:16:45;10.32;;;3.92;;
2177;SDS011;1095;50.992;6.798;2022-09-01T07:19:11;5.85;;;4.13;;
2177;SDS011;1095;50.992;6.798;2022-09-01T07:21:42;6.93;;;4.10;;
2177;SDS011;1095;50.992;6.798;2022-09-01T07:24:10;5.80;;;3.92;;
2177;SDS011;1095;50.992;6.798;2022-09-01T07:26:40;5.85;;;3.55;;
2177;SDS011;1095;50.992;6.798;2022-09-01T07:29:07;5.15;;;3.38;;
2177;SDS011;1095;50.992;6.798;2022-09-01T07:31:34;6.20;;;3.47;;
2177;SDS011;1095;50.992;6.798;2022-09-01T07:34:05;8.55;;;3.67;;
2177;SDS011;1095;50.992;6.798;2022-09-01T07:36:36;7.10;;;3.55;;
2177;SDS011;1095;50.992;6.798;2022-09-01T07:39:05;7.30;;;3.55;;
2177;SDS011;1095;50.992;6.798;2022-09-01T07:41:32;5.28;;;3.80;;
2177;SDS011;1095;50.992;6.798;2022-09-01T07:43:59;6.80;;;3.47;;
2177;SDS011;1095;50.992;6.798;2022-09-01T07:46:28;4.10;;;3.20;;
2177;SDS011;1095;50.992;6.798;2022-09-01T07:48:57;5.90;;;3.63;;
2177;SDS011;1095;50.992;6.798;2022-09-01T07:51:26;3.63;;;3.20;;
2177;SDS011;1095;50.992;6.798;2022-09-01T07:53:57;8.38;;;3.50;;
2177;SDS011;1095;50.992;6.798;2022-09-01T07:56:27;4.05;;;3.15;;
2177;SDS011;1095;50.992;6.798;2022-09-01T07:58:55;5.95;;;3.00;;
2177;SDS011;1095;50.992;6.798;2022-09-01T08:01:24;5.03;;;3.28;;
2177;SDS011;1095;50.992;6.798;2022-09-01T08:03:53;6.15;;;3.22;;
2177;SDS011;1095;50.992;6.798;2022-09-01T08:06:24;5.20;;;3.20;;
2177;SDS011;1095;50.992;6.798;2022-09-01T08:08:53;4.07;;;3.20;;
2177;SDS011;1095;50.992;6.798;2022-09-01T08:11:21;5.28;;;3.15;;
2177;SDS011;1095;50.992;6.798;2022-09-01T08:13:54;5.70;;;2.90;;
2177;SDS011;1095;50.992;6.798;2022-09-01T08:16:23;5.35;;;3.10;;
2177;SDS011;1095;50.992;6.798;2022-09-01T08:18:50;8.77;;;3.50;;
2177;SDS011;1095;50.992;6.798;2022-09-01T08:21:18;6.78;;;3.35;;
2177;SDS011;1095;50.992;6.798;2022-09-01T08:23:47;7.90;;;3.25;;
2177;SDS011;1095;50.992;6.798;2022-09-01T08:26:15;10.13;;;3.35;;
2177;SDS011;1095;50.992;6.798;2022-09-01T08:28:43;4.80;;;3.72;;
2177;SDS011;1095;50.992;6.798;2022-09-01T08:31:12;6.57;;;3.40;;
2177;SDS011;1095;50.992;6.798;2022-09-01T08:33:42;6.43;;;3.17;;
2177;SDS011;1095;50.992;6.798;2022-09-01T08:36:12;3.58;;;3.17;;
2177;SDS011;1095;50.992;6.798;2022-09-01T08:38:40;8.98;;;3.42;;
2177;SDS011;1095;50.992;6.798;2022-09-01T08:41:12;5.75;;;3.47;;
2177;SDS011;1095;50.992;6.798;2022-09-01T08:43:46;4.43;;;3.30;;
2177;SDS011;1095;50.992;6.798;2022-09-01T08:46:23;6.63;;;3.15;;
2177;SDS011;1095;50.992;6.798;2022-09-01T08:48:53;6.43;;;3.55;;
2177;SDS011;1095;50.992;6.798;2022-09-01T08:51:23;6.82;;;3.20;;
2177;SDS011;1095;50.992;6.798;2022-09-01T08:54:00;7.22;;;3.22;;
2177;SDS011;1095;50.992;6.798;2022-09-01T08:56:46;5.65;;;3.42;;
2177;SDS011;1095;50.992;6.798;2022-09-01T08:59:17;8.60;;;3.85;;
2177;SDS011;1095;50.992;6.798;2022-09-01T09:01:47;6.75;;;3.55;;
2177;SDS011;1095;50.992;6.798;2022-09-01T09:04:24;7.10;;;3.20;;
2177;SDS011;1095;50.992;6.798;2022-09-01T09:07:04;5.28;;;3.13;;
2177;SDS011;1095;50.992;6.798;2022-09-01T09:09:37;7.07;;;3.63;;
2177;SDS011;1095;50.992;6.798;2022-09-01T09:12:17;4.72;;;3.35;;
2177;SDS011;1095;50.992;6.798;2022-09-01T09:14:57;11.80;;;3.33;;
2177;SDS011;1095;50.992;6.798;2022-09-01T09:17:37;5.05;;;3.20;;
2177;SDS011;1095;50.992;6.798;2022-09-01T09:20:08;8.60;;;3.20;;
2177;SDS011;1095;50.992;6.798;2022-09-01T09:22:35;5.28;;;3.13;;
2177;SDS011;1095;50.992;6.798;2022-09-01T09:25:04;7.18;;;3.40;;
2177;SDS011;1095;50.992;6.798;2022-09-01T09:27:34;4.75;;;2.95;;
2177;SDS011;1095;50.992;6.798;2022-09-01T09:30:04;3.97;;;3.20;;
2177;SDS011;1095;50.992;6.798;2022-09-01T09:32:45;5.95;;;2.90;;
2177;SDS011;1095;50.992;6.798;2022-09-01T09:35:19;7.45;;;3.38;;
2177;SDS011;1095;50.992;6.798;2022-09-01T09:37:47;8.38;;;3.25;;
2177;SDS011;1095;50.992;6.798;2022-09-01T09:40:15;3.30;;;2.95;;
2177;SDS011;1095;50.992;6.798;2022-09-01T09:43:00;5.20;;;3.08;;
2177;SDS011;1095;50.992;6.798;2022-09-01T09:45:32;4.80;;;3.42;;
2177;SDS011;1095;50.992;6.798;2022-09-01T09:48:05;9.43;;;3.10;;
2177;SDS011;1095;50.992;6.798;2022-09-01T09:50:35;5.88;;;3.28;;
2177;SDS011;1095;50.992;6.798;2022-09-01T09:53:10;6.50;;;3.03;;
2177;SDS011;1095;50.992;6.798;2022-09-01T09:55:51;3.10;;;2.83;;
2177;SDS011;1095;50.992;6.798;2022-09-01T09:58:20;7.35;;;2.85;;
2177;SDS011;1095;50.992;6.798;2022-09-01T10:03:42;4.05;;;3.30;;
2177;SDS011;1095;50.992;6.798;2022-09-01T10:06:16;6.45;;;3.28;;
2177;SDS011;1095;50.992;6.798;2022-09-01T10:08:57;4.53;;;3.30;;
2177;SDS011;1095;50.992;6.798;2022-09-01T10:11:25;4.88;;;3.03;;
2177;SDS011;1095;50.992;6.798;2022-09-01T10:13:54;3.88;;;2.78;;
2177;SDS011;1095;50.992;6.798;2022-09-01T10:16:23;4.07;;;2.83;;
2177;SDS011;1095;50.992;6.798;2022-09-01T10:21:25;3.85;;;3.00;;
2177;SDS011;1095;50.992;6.798;2022-09-01T10:23:55;5.05;;;2.75;;
2177;SDS011;1095;50.992;6.798;2022-09-01T10:26:25;3.72;;;2.90;;
2177;SDS011;1095;50.992;6.798;2022-09-01T10:29:00;3.70;;;2.75;;
2177;SDS011;1095;50.992;6.798;2022-09-01T10:31:33;3.35;;;2.90;;
2177;SDS011;1095;50.992;6.798;2022-09-01T10:34:02;6.47;;;2.92;;
2177;SDS011;1095;50.992;6.798;2022-09-01T10:36:31;7.32;;;2.78;;
2177;SDS011;1095;50.992;6.798;2022-09-01T10:39:01;2.75;;;2.47;;
2177;SDS011;1095;50.992;6.798;2022-09-01T10:41:45;4.97;;;3.28;;
2177;SDS011;1095;50.992;6.798;2022-09-01T10:44:18;4.60;;;2.88;;
2177;SDS011;1095;50.992;6.798;2022-09-01T10:46:50;4.90;;;3.03;;
2177;SDS011;1095;50.992;6.798;2022-09-01T10:55:20;5.22;;;2.88;;
2177;SDS011;1095;50.992;6.798;2022-09-01T10:57:56;3.55;;;2.65;;
2177;SDS011;1095;50.992;6.798;2022-09-01T11:00:48;3.38;;;2.67;;
2177;SDS011;1095;50.992;6.798;2022-09-01T11:09:24;4.40;;;2.92;;
2177;SDS011;1095;50.992;6.798;2022-09-01T11:12:07;3.38;;;2.85;;
2177;SDS011;1095;50.992;6.798;2022-09-01T11:15:04;5.43;;;3.25;;
2177;SDS011;1095;50.992;6.798;2022-09-01T11:17:56;3.60;;;3.00;;
2177;SDS011;1095;50.992;6.798;2022-09-01T11:20:24;6.60;;;3.20;;
2177;SDS011;1095;50.992;6.798;2022-09-01T11:22:58;3.58;;;3.10;;
2177;SDS011;1095;50.992;6.798;2022-09-01T11:31:16;4.38;;;3.03;;
2177;SDS011;1095;50.992;6.798;2022-09-01T11:36:44;6.05;;;2.85;;
2177;SDS011;1095;50.992;6.798;2022-09-01T11:39:23;3.25;;;2.95;;
2177;SDS011;1095;50.992;6.798;2022-09-01T11:41:56;4.47;;;3.42;;
2177;SDS011;1095;50.992;6.798;2022-09-01T11:44:26;4.38;;;3.45;;
2177;SDS011;1095;50.992;6.798;2022-09-01T11:46:58;3.83;;;3.20;;
2177;SDS011;1095;50.992;6.798;2022-09-01T11:49:30;4.65;;;3.13;;
2177;SDS011;1095;50.992;6.798;2022-09-01T11:52:02;8.93;;;3.60;;
2177;SDS011;1095;50.992;6.798;2022-09-01T11:54:36;3.42;;;3.10;;
2177;SDS011;1095;50.992;6.798;2022-09-01T11:57:15;6.57;;;3.40;;
2177;SDS011;1095;50.992;6.798;2022-09-01T11:59:43;5.93;;;3.25;;
2177;SDS011;1095;50.992;6.798;2022-09-01T12:02:15;3.40;;;3.00;;
2177;SDS011;1095;50.992;6.798;2022-09-01T12:07:12;3.65;;;3.25;;
2177;SDS011;1095;50.992;6.798;2022-09-01T12:09:48;5.20;;;3.80;;
2177;SDS011;1095;50.992;6.798;2022-09-01T12:12:27;6.90;;;3.60;;
2177;SDS011;1095;50.992;6.798;2022-09-01T12:14:56;15.00;;;4.00;;
2177;SDS011;1095;50.992;6.798;2022-09-01T12:17:25;4.85;;;3.65;;
2177;SDS011;1095;50.992;6.798;2022-09-01T12:19:54;5.28;;;3.70;;
2177;SDS011;1095;50.992;6.798;2022-09-01T12:22:21;4.38;;;3.45;;
2177;SDS011;1095;50.992;6.798;2022-09-01T12:24:49;6.57;;;3.45;;
2177;SDS011;1095;50.992;6.798;2022-09-01T12:27:17;8.80;;;3.88;;
2177;SDS011;1095;50.992;6.798;2022-09-01T12:29:44;6.05;;;3.70;;
2177;SDS011;1095;50.992;6.798;2022-09-01T12:32:12;3.85;;;3.33;;
2177;SDS011;1095;50.992;6.798;2022-09-01T12:34:41;5.28;;;3.60;;
2177;SDS011;1095;50.992;6.798;2022-09-01T12:37:11;5.63;;;3.88;;
2177;SDS011;1095;50.992;6.798;2022-09-01T12:39:47;5.22;;;3.55;;
2177;SDS011;1095;50.992;6.798;2022-09-01T12:42:25;6.60;;;3.85;;
2177;SDS011;1095;50.992;6.798;2022-09-01T12:44:54;4.68;;;3.75;;
2177;SDS011;1095;50.992;6.798;2022-09-01T12:50:41;6.80;;;3.67;;
2177;SDS011;1095;50.992;6.798;2022-09-01T12:53:16;4.03;;;3.63;;
2177;SDS011;1095;50.992;6.798;2022-09-01T12:55:59;7.07;;;3.92;;
2177;SDS011;1095;50.992;6.798;2022-09-01T12:58:32;4.63;;;4.05;;
2177;SDS011;1095;50.992;6.798;2022-09-01T13:01:02;4.75;;;3.80;;
2177;SDS011;1095;50.992;6.798;2022-09-01T13:03:30;4.85;;;3.65;;
2177;SDS011;1095;50.992;6.798;2022-09-01T13:05:58;8.00;;;4.32;;
2177;SDS011;1095;50.992;6.798;2022-09-01T13:08:28;4.72;;;4.22;;
2177;SDS011;1095;50.992;6.798;2022-09-01T13:10:58;6.28;;;4.25;;
2177;SDS011;1095;50.992;6.798;2022-09-01T13:13:27;5.15;;;4.03;;
2177;SDS011;1095;50.992;6.798;2022-09-01T13:15:55;4.30;;;3.70;;
2177;SDS011;1095;50.992;6.798;2022-09-01T13:18:24;4.35;;;3.60;;
2177;SDS011;1095;50.992;6.798;2022-09-01T13:20:52;4.63;;;3.80;;
2177;SDS011;1095;50.992;6.798;2022-09-01T13:23:20;4.13;;;3.65;;
2177;SDS011;1095;50.992;6.798;2022-09-01T13:25:49;5.25;;;4.38;;
2177;SDS011;1095;50.992;6.798;2022-09-01T13:28:16;6.55;;;4.20;;
2177;SDS011;1095;50.992;6.798;2022-09-01T13:30:44;6.07;;;4.00;;
2177;SDS011;1095;50.992;6.798;2022-09-01T13:33:17;7.32;;;4.07;;
2177;SDS011;1095;50.992;6.798;2022-09-01T13:35:43;5.97;;;4.20;;
2177;SDS011;1095;50.992;6.798;2022-09-01T13:38:10;7.47;;;3.80;;
2177;SDS011;1095;50.992;6.798;2022-09-01T13:40:40;9.55;;;4.00;;
2177;SDS011;1095;50.992;6.798;2022-09-01T13:43:08;5.93;;;4.40;;
2177;SDS011;1095;50.992;6.798;2022-09-01T13:45:35;5.63;;;4.82;;
2177;SDS011;1095;50.992;6.798;2022-09-01T13:48:05;7.53;;;4.30;;
2177;SDS011;1095;50.992;6.798;2022-09-01T13:50:32;4.57;;;3.90;;
2177;SDS011;1095;50.992;6.798;2022-09-01T13:52:59;4.90;;;4.25;;
2177;SDS011;1095;50.992;6.798;2022-09-01T13:55:27;5.50;;;4.25;;
2177;SDS011;1095;50.992;6.798;2022-09-01T13:57:55;7.70;;;4.00;;
2177;SDS011;1095;50.992;6.798;2022-09-01T14:00:26;7.15;;;3.80;;
2177;SDS011;1095;50.992;6.798;2022-09-01T14:02:57;6.38;;;4.20;;
2177;SDS011;1095;50.992;6.798;2022-09-01T14:05:28;5.97;;;4.00;;
2177;SDS011;1095;50.992;6.798;2022-09-01T14:07:56;4.70;;;4.20;;
2177;SDS011;1095;50.992;6.798;2022-09-01T14:10:24;4.88;;;4.22;;
2177;SDS011;1095;50.992;6.798;2022-09-01T14:12:52;11.68;;;4.95;;
2177;SDS011;1095;50.992;6.798;2022-09-01T14:15:19;12.90;;;4.70;;
2177;SDS011;1095;50.992;6.798;2022-09-01T14:17:49;4.80;;;3.70;;
2177;SDS011;1095;50.992;6.798;2022-09-01T14:20:17;7.88;;;4.15;;
2177;SDS011;1095;50.992;6.798;2022-09-01T14:22:46;5.88;;;4.05;;
2177;SDS011;1095;50.992;6.798;2022-09-01T14:25:13;4.60;;;4.20;;
2177;SDS011;1095;50.992;6.798;2022-09-01T14:27:41;6.32;;;4.10;;
2177;SDS011;1095;50.992;6.798;2022-09-01T14:30:09;5.18;;;4.38;;
2177;SDS011;1095;50.992;6.798;2022-09-01T14:32:42;6.05;;;4.30;;
2177;SDS011;1095;50.992;6.798;2022-09-01T14:35:10;5.35;;;3.75;;
2177;SDS011;1095;50.992;6.798;2022-09-01T14:37:37;5.38;;;4.15;;
2177;SDS011;1095;50.992;6.798;2022-09-01T14:40:05;5.55;;;4.32;;
2177;SDS011;1095;50.992;6.798;2022-09-01T14:42:33;4.88;;;4.38;;
2177;SDS011;1095;50.992;6.798;2022-09-01T14:45:01;5.13;;;4.45;;
2177;SDS011;1095;50.992;6.798;2022-09-01T14:47:28;7.10;;;4.78;;
2177;SDS011;1095;50.992;6.798;2022-09-01T14:49:56;5.55;;;4.32;;
2177;SDS011;1095;50.992;6.798;2022-09-01T14:52:24;8.20;;;4.82;;
2177;SDS011;1095;50.992;6.798;2022-09-01T14:54:51;5.90;;;4.57;;
2177;SDS011;1095;50.992;6.798;2022-09-01T14:57:18;5.10;;;4.43;;
2177;SDS011;1095;50.992;6.798;2022-09-01T14:59:44;11.85;;;4.88;;
2177;SDS011;1095;50.992;6.798;2022-09-01T15:02:11;8.82;;;4.60;;
2177;SDS011;1095;50.992;6.798;2022-09-01T15:04:38;7.32;;;4.72;;
2177;SDS011;1095;50.992;6.798;2022-09-01T15:07:06;5.90;;;4.60;;
2177;SDS011;1095;50.992;6.798;2022-09-01T15:09:34;9.50;;;4.72;;
2177;SDS011;1095;50.992;6.798;2022-09-01T15:12:01;5.00;;;4.30;;
2177;SDS011;1095;50.992;6.798;2022-09-01T15:14:28;7.22;;;4.43;;
2177;SDS011;1095;50.992;6.798;2022-09-01T15:16:55;5.88;;;4.60;;
2177;SDS011;1095;50.992;6.798;2022-09-01T15:19:21;6.70;;;4.47;;
2177;SDS011;1095;50.992;6.798;2022-09-01T15:21:48;6.03;;;4.45;;
2177;SDS011;1095;50.992;6.798;2022-09-01T15:24:15;6.35;;;4.40;;
2177;SDS011;1095;50.992;6.798;2022-09-01T15:26:44;8.00;;;4.57;;
2177;SDS011;1095;50.992;6.798;2022-09-01T15:29:12;10.80;;;4.50;;
2177;SDS011;1095;50.992;6.798;2022-09-01T15:31:39;6.03;;;4.50;;
2177;SDS011;1095;50.992;6.798;2022-09-01T15:34:06;5.43;;;4.47;;
2177;SDS011;1095;50.992;6.798;2022-09-01T15:36:33;7.55;;;4.68;;
2177;SDS011;1095;50.992;6.798;2022-09-01T15:39:04;4.90;;;4.40;;
2177;SDS011;1095;50.992;6.798;2022-09-01T15:41:32;5.15;;;4.60;;
2177;SDS011;1095;50.992;6.798;2022-09-01T15:44:02;8.07;;;4.70;;
2177;SDS011;1095;50.992;6.798;2022-09-01T15:46:38;7.53;;;4.70;;
2177;SDS011;1095;50.992;6.798;2022-09-01T15:49:07;5.82;;;4.07;;
2177;SDS011;1095;50.992;6.798;2022-09-01T15:51:35;5.43;;;4.60;;
2177;SDS011;1095;50.992;6.798;2022-09-01T15:54:05;5.65;;;4.57;;
2177;SDS011;1095;50.992;6.798;2022-09-01T15:56:34;9.45;;;4.35;;
2177;SDS011;1095;50.992;6.798;2022-09-01T15:59:03;6.50;;;4.25;;
2177;SDS011;1095;50.992;6.798;2022-09-01T16:01:31;4.97;;;4.47;;